Zim Qingdao — A8IZ2 — position and weather

sailwx.info

Track history (hours):
 
Tides and Currents Weather Stations Pressure Air Temp Water Temp Dewpoint Dewpoint Depression Visibility Wind Speed Wind Dir Waves Ship Positions

Zim Qingdao

Last reported at 2017-Jul-23 17:32 UTC. Time now 2017-Jul-24 16:49 UTC.
Position N 39°46' E 000°15'.

Length 260.61 m; beam 32.25 m; draft 12.6 m.

Type: Ship (hazmat cat A). MMSI: 636012904.

Date/timePositionNaut miles runAvg speedWind from/ knotsBaromVisibWave heightAir tempDewpointWater temp
2017-Jul-23 17:32N 39°46' E 000°15'113.0
2017-Jul-23 17:27N 39°47' E 000°16'2913.0
2017-Jul-23 15:15N 40°06' E 000°43'412.9
2017-Jul-23 14:55N 40°09' E 000°47'612.7
2017-Jul-23 14:28N 40°13' E 000°53'612.5
2017-Jul-23 14:00N 40°17' E 000°58'612.3
2017-Jul-23 13:30N 40°21' E 001°04'712.7
2017-Jul-23 12:58N 40°25' E 001°11'812.9
2017-Jul-23 12:21N 40°31' E 001°19'513.0
2017-Jul-23 12:00N 40°34' E 001°23'713.2
2017-Jul-23 11:30N 40°38' E 001°30'713.2
2017-Jul-23 11:00N 40°43' E 001°35'613.0
2017-Jul-23 10:30N 40°48' E 001°41'612.9
2017-Jul-23 10:00N 40°53' E 001°46'612.9
2017-Jul-23 09:30N 40°58' E 001°51'612.8
2017-Jul-23 09:00N 41°03' E 001°57'612.7
2017-Jul-23 08:30N 41°08' E 002°02'612.7
2017-Jul-23 08:00N 41°13' E 002°07'611.6
2017-Jul-23 07:30N 41°19' E 002°10'2 0.3
2017-Jul-22 22:59N 41°21' E 002°10'0 0.0
2017-Jul-22 22:28N 41°21' E 002°10'3 0.2
2017-Jul-22 08:46N 41°18' E 002°12'1 0.1
2017-Jul-21 23:27N 41°19' E 002°12'0 0.0
2017-Jul-21 21:09N 41°19' E 002°12'0 0.1
2017-Jul-21 20:57N 41°19' E 002°12'0 0.0
2017-Jul-21 20:21N 41°19' E 002°12'0 0.1
2017-Jul-21 19:57N 41°19' E 002°12'0 0.0
2017-Jul-21 19:15N 41°19' E 002°12'0 0.1
2017-Jul-21 18:45N 41°19' E 002°12'0 0.0
2017-Jul-21 17:33N 41°19' E 002°12'0 0.1
2017-Jul-21 17:27N 41°19' E 002°12'0 0.0
2017-Jul-21 16:57N 41°19' E 002°12'0 0.0
2017-Jul-21 16:27N 41°19' E 002°12'0 0.1
2017-Jul-21 15:57N 41°19' E 002°12'0 0.0
2017-Jul-21 15:21N 41°19' E 002°12'0 0.0
2017-Jul-21 14:51N 41°19' E 002°12'13 2.2
2017-Jul-21 09:05N 41°12' E 002°26'114.2
2017-Jul-21 09:00N 41°11' E 002°27'714.1
2017-Jul-21 08:31N 41°08' E 002°35'714.4
2017-Jul-21 08:00N 41°05' E 002°44'814.4
2017-Jul-21 07:29N 41°02' E 002°53'714.4
2017-Jul-21 07:01N 40°59' E 003°01'714.4
2017-Jul-21 06:31N 40°55' E 003°10'714.5
2017-Jul-21 06:01N 40°52' E 003°18'714.3
2017-Jul-21 05:30N 40°49' E 003°27'1514.6
2017-Jul-21 04:27N 40°42' E 003°45'17814.8
2017-Jul-20 16:27N 39°20' E 007°11'614.6
2017-Jul-20 16:00N 39°16' E 007°18'7215.2
2017-Jul-20 11:18N 38°44' E 008°40'7315.4
2017-Jul-20 06:33N 38°15' E 010°06'115.5
2017-Jul-20 06:30N 38°15' E 010°06'815.1
2017-Jul-20 06:00N 38°12' E 010°16'815.3
2017-Jul-20 05:27N 38°09' E 010°25'3715.4
2017-Jul-20 03:03N 37°56' E 011°09'115.2
2017-Jul-20 03:00N 37°55' E 011°10'2715.3
2017-Jul-20 01:14N 37°45' E 011°41'415.2
2017-Jul-20 01:00N 37°43' E 011°46'3315.1
2017-Jul-19 22:47N 37°30' E 012°25'815.5
2017-Jul-19 22:17N 37°27' E 012°34'4315.3
2017-Jul-19 19:29N 37°08' E 013°21'914.9
2017-Jul-19 18:52N 37°03' E 013°31'1014.8
2017-Jul-19 18:12N 36°58' E 013°41'314.6
2017-Jul-19 18:00N 36°56' E 013°45'814.3
2017-Jul-19 17:28N 36°54' E 013°54'714.3
2017-Jul-19 17:00N 36°51' E 014°01'714.5
2017-Jul-19 16:30N 36°48' E 014°10'714.4
2017-Jul-19 16:00N 36°46' E 014°18'714.5
2017-Jul-19 15:30N 36°43' E 014°26'714.3
2017-Jul-19 15:00N 36°41' E 014°35'714.3
2017-Jul-19 14:30N 36°38' E 014°43'714.1
2017-Jul-19 14:00N 36°37' E 014°52'714.4
2017-Jul-19 13:30N 36°36' E 015°01'714.1
2017-Jul-19 13:00N 36°35' E 015°10'714.5
2017-Jul-19 12:30N 36°35' E 015°19'714.7
2017-Jul-19 12:00N 36°35' E 015°28'39813.8
2017-Jul-18 07:14N 37°33' E 023°41'316.0
2017-Jul-18 07:01N 37°37' E 023°41'816.0
2017-Jul-18 06:30N 37°45' E 023°40'816.1
2017-Jul-18 06:00N 37°52' E 023°36'5 9.4
2017-Jul-18 05:30N 37°57' E 023°35'0 0.8
2017-Jul-18 05:00N 37°57' E 023°35'0 0.0
2017-Jul-18 04:30N 37°57' E 023°35'0 0.0
2017-Jul-18 04:00N 37°57' E 023°35'0 0.0
2017-Jul-18 03:30N 37°57' E 023°35'0 0.0
2017-Jul-18 03:00N 37°57' E 023°35'0 0.0
2017-Jul-18 02:30N 37°57' E 023°35'0 0.0
2017-Jul-18 02:00N 37°57' E 023°35'0 0.0
2017-Jul-18 01:30N 37°57' E 023°35'0 0.0
2017-Jul-18 01:00N 37°57' E 023°35'0 0.0
2017-Jul-18 00:30N 37°57' E 023°35'0 0.0
2017-Jul-18 00:00N 37°57' E 023°35'0 0.0
2017-Jul-17 23:30N 37°57' E 023°35'0 0.0
2017-Jul-17 23:00N 37°57' E 023°35'0 0.0
2017-Jul-17 22:30N 37°57' E 023°35'0 0.0
2017-Jul-17 22:00N 37°57' E 023°35'0 0.0
2017-Jul-17 21:30N 37°57' E 023°35'0 0.0
2017-Jul-17 21:00N 37°57' E 023°35'0 0.0
2017-Jul-17 20:30N 37°57' E 023°35'0 0.0
2017-Jul-17 20:00N 37°57' E 023°35'0 0.0
2017-Jul-17 19:30N 37°57' E 023°35'0 0.0
2017-Jul-17 19:00N 37°57' E 023°35'0 0.0
2017-Jul-17 18:30N 37°57' E 023°35'0 0.0
2017-Jul-17 18:00N 37°57' E 023°35'0 0.0
2017-Jul-17 17:30N 37°57' E 023°35'0 0.0
2017-Jul-17 17:00N 37°57' E 023°35'0 0.0
2017-Jul-17 16:30N 37°57' E 023°35'0 0.0
2017-Jul-17 16:00N 37°57' E 023°35'0 0.0
2017-Jul-17 15:30N 37°57' E 023°35'0 0.0
2017-Jul-17 15:00N 37°57' E 023°35'0 0.0
2017-Jul-17 14:30N 37°57' E 023°35'0 0.0
2017-Jul-17 14:00N 37°57' E 023°35'0 0.0
2017-Jul-17 13:30N 37°57' E 023°35'0 0.0
2017-Jul-17 13:00N 37°57' E 023°35'0 0.0
2017-Jul-17 12:30N 37°57' E 023°35'0 0.0
2017-Jul-17 12:00N 37°57' E 023°35'0 0.0
2017-Jul-17 11:30N 37°57' E 023°35'0 0.0
2017-Jul-17 11:00N 37°57' E 023°35'0 0.0
2017-Jul-17 10:30N 37°57' E 023°35'0 0.0
2017-Jul-17 10:00N 37°57' E 023°35'0 0.0
2017-Jul-17 09:30N 37°57' E 023°35'0 0.0
2017-Jul-17 09:00N 37°57' E 023°35'0 0.0
2017-Jul-17 08:30N 37°57' E 023°35'0 0.0
2017-Jul-17 08:00N 37°57' E 023°35'0 0.0
2017-Jul-17 07:30N 37°57' E 023°35'0 0.0
2017-Jul-17 06:57N 37°57' E 023°35'0 0.0
2017-Jul-17 06:30N 37°57' E 023°35'0 0.0
2017-Jul-17 06:00N 37°57' E 023°35'0 0.0
2017-Jul-17 05:30N 37°57' E 023°35'0 0.0
2017-Jul-17 05:00N 37°57' E 023°35'0 0.0
2017-Jul-17 04:30N 37°57' E 023°35'1 1.4
2017-Jul-17 04:01N 37°57' E 023°36'3 5.3
2017-Jul-17 03:30N 37°54' E 023°36'3 5.5
2017-Jul-17 03:00N 37°52' E 023°37'2 4.3
2017-Jul-17 02:31N 37°50' E 023°39'510.4
2017-Jul-17 02:01N 37°46' E 023°43'713.1
2017-Jul-17 01:30N 37°40' E 023°47'2413.2
2017-Jul-16 23:43N 37°45' E 024°17'76 2.7
2017-Jul-15 20:10N 37°39' E 025°52'317.3
2017-Jul-15 20:01N 37°36' E 025°52'19117.3
2017-Jul-15 08:57N 35°22' E 028°42'918.2
2017-Jul-15 08:28N 35°18' E 028°51'1218.2
2017-Jul-15 07:50N 35°12' E 029°04'1118.0
2017-Jul-15 07:13N 35°07' E 029°16'417.9
2017-Jul-15 07:00N 35°05' E 029°20'4518.1
2017-Jul-15 04:31N 34°44' E 030°09'118.8
2017-Jul-15 04:28N 34°44' E 030°10'818.6
2017-Jul-15 04:00N 34°40' E 030°19'918.4
2017-Jul-15 03:30N 34°36' E 030°29'918.5
2017-Jul-15 03:00N 34°31' E 030°39'918.5
2017-Jul-15 02:31N 34°27' E 030°49'918.7
2017-Jul-15 02:01N 34°23' E 030°59'918.7
2017-Jul-15 01:31N 34°18' E 031°09'918.5
2017-Jul-15 01:00N 34°14' E 031°19'918.5
2017-Jul-15 00:31N 34°10' E 031°29'918.6
2017-Jul-15 00:01N 34°05' E 031°38'918.6
2017-Jul-14 23:31N 34°01' E 031°48'918.6
2017-Jul-14 23:00N 33°57' E 031°58'918.5
2017-Jul-14 22:30N 33°52' E 032°08'918.5
2017-Jul-14 22:00N 33°48' E 032°18'918.6
2017-Jul-14 21:30N 33°44' E 032°28'918.7
2017-Jul-14 21:00N 33°39' E 032°38'918.6
2017-Jul-14 20:31N 33°35' E 032°48'918.4
2017-Jul-14 20:00N 33°31' E 032°58'1418.2
2017-Jul-14 19:15N 33°25' E 033°12'517.8
2017-Jul-14 18:58N 33°22' E 033°18'817.8
2017-Jul-14 18:31N 33°18' E 033°26'918.0
2017-Jul-14 18:01N 33°14' E 033°36'918.3
2017-Jul-14 17:31N 33°10' E 033°45'918.5
2017-Jul-14 17:01N 33°06' E 033°55'918.7
2017-Jul-14 16:30N 33°03' E 034°06'919.0
2017-Jul-14 16:01N 33°00' E 034°17'918.8
2017-Jul-14 15:31N 32°58' E 034°28'918.8
2017-Jul-14 15:01N 32°56' E 034°39'918.6
2017-Jul-14 14:31N 32°54' E 034°50'917.8
2017-Jul-14 14:01N 32°51' E 034°60'3 5.5
2017-Jul-14 13:31N 32°49' E 035°01'0 0.0
2017-Jul-14 13:01N 32°49' E 035°01'0 0.0
2017-Jul-14 12:31N 32°49' E 035°01'0 0.0
2017-Jul-14 12:01N 32°49' E 035°01'0 0.0
2017-Jul-14 11:31N 32°49' E 035°01'0 0.0
2017-Jul-14 11:00N 32°49' E 035°01'0 0.0
2017-Jul-14 10:30N 32°49' E 035°01'0 0.0
2017-Jul-14 10:01N 32°49' E 035°01'0 0.0
2017-Jul-14 09:31N 32°49' E 035°01'0 0.0
2017-Jul-14 09:00N 32°49' E 035°01'0 0.0
2017-Jul-14 08:30N 32°49' E 035°01'0 0.0
2017-Jul-14 08:01N 32°49' E 035°01'0 0.0
2017-Jul-14 07:31N 32°49' E 035°01'0 0.0
2017-Jul-14 07:01N 32°49' E 035°01'0 0.0
2017-Jul-14 06:31N 32°49' E 035°01'0 0.0
2017-Jul-14 06:00N 32°49' E 035°01'0 0.0
2017-Jul-14 05:31N 32°49' E 035°01'0 0.0
2017-Jul-14 05:01N 32°49' E 035°01'0 0.0
2017-Jul-14 04:31N 32°49' E 035°01'0 0.0
2017-Jul-14 04:00N 32°49' E 035°01'0 0.0
2017-Jul-14 03:31N 32°49' E 035°01'0 0.0
2017-Jul-14 03:01N 32°49' E 035°01'0 0.0
2017-Jul-14 02:31N 32°49' E 035°01'0 0.0
2017-Jul-14 02:01N 32°49' E 035°01'0 0.0
2017-Jul-14 01:31N 32°49' E 035°01'0 0.0
2017-Jul-14 01:01N 32°49' E 035°01'0 0.0
2017-Jul-14 00:31N 32°49' E 035°01'0 0.0
2017-Jul-14 00:01N 32°49' E 035°01'0 0.0
2017-Jul-13 23:31N 32°49' E 035°01'0 0.0
2017-Jul-13 23:01N 32°49' E 035°01'0 0.0
2017-Jul-13 22:31N 32°49' E 035°01'0 0.0
2017-Jul-13 22:01N 32°49' E 035°01'0 0.0
2017-Jul-13 21:31N 32°49' E 035°01'0 0.0
2017-Jul-13 21:01N 32°49' E 035°01'0 0.0
2017-Jul-13 20:31N 32°49' E 035°01'0 0.0
2017-Jul-13 20:01N 32°49' E 035°01'0 0.0
2017-Jul-13 19:30N 32°49' E 035°01'0 0.0
2017-Jul-13 19:00N 32°49' E 035°01'0 0.0
2017-Jul-13 18:31N 32°49' E 035°01'0 0.0
2017-Jul-13 18:01N 32°49' E 035°01'  
Track history (hours):
 
Tides and Currents Weather Stations Pressure Air Temp Water Temp Dewpoint Dewpoint Depression Visibility Wind Speed Wind Dir Waves Ship Positions

Zim Qingdao

Last reported at 2017-Jul-23 17:32 UTC. Time now 2017-Jul-24 16:50 UTC.
Position N 39°46' E 000°15'.

Length 260.61 m; beam 32.25 m; draft 12.6 m.

Type: Ship (hazmat cat A). MMSI: 636012904.

Date/timePositionNaut miles runAvg speedWind from/ knotsBaromVisibWave heightAir tempDewpointWater temp
2017-Jul-23 17:32N 39°46' E 000°15'113.0
2017-Jul-23 17:27N 39°47' E 000°16'2913.0
2017-Jul-23 15:15N 40°06' E 000°43'412.9
2017-Jul-23 14:55N 40°09' E 000°47'612.7
2017-Jul-23 14:28N 40°13' E 000°53'612.5
2017-Jul-23 14:00N 40°17' E 000°58'612.3
2017-Jul-23 13:30N 40°21' E 001°04'712.7
2017-Jul-23 12:58N 40°25' E 001°11'812.9
2017-Jul-23 12:21N 40°31' E 001°19'513.0
2017-Jul-23 12:00N 40°34' E 001°23'713.2
2017-Jul-23 11:30N 40°38' E 001°30'713.2
2017-Jul-23 11:00N 40°43' E 001°35'613.0
2017-Jul-23 10:30N 40°48' E 001°41'612.9
2017-Jul-23 10:00N 40°53' E 001°46'612.9
2017-Jul-23 09:30N 40°58' E 001°51'612.8
2017-Jul-23 09:00N 41°03' E 001°57'612.7
2017-Jul-23 08:30N 41°08' E 002°02'612.7
2017-Jul-23 08:00N 41°13' E 002°07'611.6
2017-Jul-23 07:30N 41°19' E 002°10'2 0.3
2017-Jul-22 22:59N 41°21' E 002°10'0 0.0
2017-Jul-22 22:28N 41°21' E 002°10'3 0.2
2017-Jul-22 08:46N 41°18' E 002°12'1 0.1
2017-Jul-21 23:27N 41°19' E 002°12'0 0.0
2017-Jul-21 21:09N 41°19' E 002°12'0 0.1
2017-Jul-21 20:57N 41°19' E 002°12'0 0.0
2017-Jul-21 20:21N 41°19' E 002°12'0 0.1
2017-Jul-21 19:57N 41°19' E 002°12'0 0.0
2017-Jul-21 19:15N 41°19' E 002°12'0 0.1
2017-Jul-21 18:45N 41°19' E 002°12'0 0.0
2017-Jul-21 17:33N 41°19' E 002°12'0 0.1
2017-Jul-21 17:27N 41°19' E 002°12'0 0.0
2017-Jul-21 16:57N 41°19' E 002°12'0 0.0
2017-Jul-21 16:27N 41°19' E 002°12'0 0.1
2017-Jul-21 15:57N 41°19' E 002°12'0 0.0
2017-Jul-21 15:21N 41°19' E 002°12'0 0.0
2017-Jul-21 14:51N 41°19' E 002°12'13 2.2
2017-Jul-21 09:05N 41°12' E 002°26'114.2
2017-Jul-21 09:00N 41°11' E 002°27'714.1
2017-Jul-21 08:31N 41°08' E 002°35'714.4
2017-Jul-21 08:00N 41°05' E 002°44'814.4
2017-Jul-21 07:29N 41°02' E 002°53'714.4
2017-Jul-21 07:01N 40°59' E 003°01'714.4
2017-Jul-21 06:31N 40°55' E 003°10'714.5
2017-Jul-21 06:01N 40°52' E 003°18'714.3
2017-Jul-21 05:30N 40°49' E 003°27'1514.6
2017-Jul-21 04:27N 40°42' E 003°45'17814.8
2017-Jul-20 16:27N 39°20' E 007°11'614.6
2017-Jul-20 16:00N 39°16' E 007°18'7215.2
2017-Jul-20 11:18N 38°44' E 008°40'7315.4
2017-Jul-20 06:33N 38°15' E 010°06'115.5
2017-Jul-20 06:30N 38°15' E 010°06'815.1
2017-Jul-20 06:00N 38°12' E 010°16'815.3
2017-Jul-20 05:27N 38°09' E 010°25'3715.4
2017-Jul-20 03:03N 37°56' E 011°09'115.2
2017-Jul-20 03:00N 37°55' E 011°10'2715.3
2017-Jul-20 01:14N 37°45' E 011°41'415.2
2017-Jul-20 01:00N 37°43' E 011°46'3315.1
2017-Jul-19 22:47N 37°30' E 012°25'815.5
2017-Jul-19 22:17N 37°27' E 012°34'4315.3
2017-Jul-19 19:29N 37°08' E 013°21'914.9
2017-Jul-19 18:52N 37°03' E 013°31'1014.8
2017-Jul-19 18:12N 36°58' E 013°41'314.6
2017-Jul-19 18:00N 36°56' E 013°45'814.3
2017-Jul-19 17:28N 36°54' E 013°54'714.3
2017-Jul-19 17:00N 36°51' E 014°01'714.5
2017-Jul-19 16:30N 36°48' E 014°10'714.4
2017-Jul-19 16:00N 36°46' E 014°18'714.5
2017-Jul-19 15:30N 36°43' E 014°26'714.3
2017-Jul-19 15:00N 36°41' E 014°35'714.3
2017-Jul-19 14:30N 36°38' E 014°43'714.1
2017-Jul-19 14:00N 36°37' E 014°52'714.4
2017-Jul-19 13:30N 36°36' E 015°01'714.1
2017-Jul-19 13:00N 36°35' E 015°10'714.5
2017-Jul-19 12:30N 36°35' E 015°19'714.7
2017-Jul-19 12:00N 36°35' E 015°28'39813.8
2017-Jul-18 07:14N 37°33' E 023°41'316.0
2017-Jul-18 07:01N 37°37' E 023°41'816.0
2017-Jul-18 06:30N 37°45' E 023°40'816.1
2017-Jul-18 06:00N 37°52' E 023°36'5 9.4
2017-Jul-18 05:30N 37°57' E 023°35'0 0.8
2017-Jul-18 05:00N 37°57' E 023°35'0 0.0
2017-Jul-18 04:30N 37°57' E 023°35'0 0.0
2017-Jul-18 04:00N 37°57' E 023°35'0 0.0
2017-Jul-18 03:30N 37°57' E 023°35'0 0.0
2017-Jul-18 03:00N 37°57' E 023°35'0 0.0
2017-Jul-18 02:30N 37°57' E 023°35'0 0.0
2017-Jul-18 02:00N 37°57' E 023°35'0 0.0
2017-Jul-18 01:30N 37°57' E 023°35'0 0.0
2017-Jul-18 01:00N 37°57' E 023°35'0 0.0
2017-Jul-18 00:30N 37°57' E 023°35'0 0.0
2017-Jul-18 00:00N 37°57' E 023°35'0 0.0
2017-Jul-17 23:30N 37°57' E 023°35'0 0.0
2017-Jul-17 23:00N 37°57' E 023°35'0 0.0
2017-Jul-17 22:30N 37°57' E 023°35'0 0.0
2017-Jul-17 22:00N 37°57' E 023°35'0 0.0
2017-Jul-17 21:30N 37°57' E 023°35'0 0.0
2017-Jul-17 21:00N 37°57' E 023°35'0 0.0
2017-Jul-17 20:30N 37°57' E 023°35'0 0.0
2017-Jul-17 20:00N 37°57' E 023°35'0 0.0
2017-Jul-17 19:30N 37°57' E 023°35'0 0.0
2017-Jul-17 19:00N 37°57' E 023°35'0 0.0
2017-Jul-17 18:30N 37°57' E 023°35'0 0.0
2017-Jul-17 18:00N 37°57' E 023°35'0 0.0
2017-Jul-17 17:30N 37°57' E 023°35'0 0.0
2017-Jul-17 17:00N 37°57' E 023°35'0 0.0
2017-Jul-17 16:30N 37°57' E 023°35'0 0.0
2017-Jul-17 16:00N 37°57' E 023°35'0 0.0
2017-Jul-17 15:30N 37°57' E 023°35'0 0.0
2017-Jul-17 15:00N 37°57' E 023°35'0 0.0
2017-Jul-17 14:30N 37°57' E 023°35'0 0.0
2017-Jul-17 14:00N 37°57' E 023°35'0 0.0
2017-Jul-17 13:30N 37°57' E 023°35'0 0.0
2017-Jul-17 13:00N 37°57' E 023°35'0 0.0
2017-Jul-17 12:30N 37°57' E 023°35'0 0.0
2017-Jul-17 12:00N 37°57' E 023°35'0 0.0
2017-Jul-17 11:30N 37°57' E 023°35'0 0.0
2017-Jul-17 11:00N 37°57' E 023°35'0 0.0
2017-Jul-17 10:30N 37°57' E 023°35'0 0.0
2017-Jul-17 10:00N 37°57' E 023°35'0 0.0
2017-Jul-17 09:30N 37°57' E 023°35'0 0.0
2017-Jul-17 09:00N 37°57' E 023°35'0 0.0
2017-Jul-17 08:30N 37°57' E 023°35'0 0.0
2017-Jul-17 08:00N 37°57' E 023°35'0 0.0
2017-Jul-17 07:30N 37°57' E 023°35'0 0.0
2017-Jul-17 06:57N 37°57' E 023°35'0 0.0
2017-Jul-17 06:30N 37°57' E 023°35'0 0.0
2017-Jul-17 06:00N 37°57' E 023°35'0 0.0
2017-Jul-17 05:30N 37°57' E 023°35'0 0.0
2017-Jul-17 05:00N 37°57' E 023°35'0 0.0
2017-Jul-17 04:30N 37°57' E 023°35'1 1.4
2017-Jul-17 04:01N 37°57' E 023°36'3 5.3
2017-Jul-17 03:30N 37°54' E 023°36'3 5.5
2017-Jul-17 03:00N 37°52' E 023°37'2 4.3
2017-Jul-17 02:31N 37°50' E 023°39'510.4
2017-Jul-17 02:01N 37°46' E 023°43'713.1
2017-Jul-17 01:30N 37°40' E 023°47'2413.2
2017-Jul-16 23:43N 37°45' E 024°17'76 2.7
2017-Jul-15 20:10N 37°39' E 025°52'317.3
2017-Jul-15 20:01N 37°36' E 025°52'19117.3
2017-Jul-15 08:57N 35°22' E 028°42'918.2
2017-Jul-15 08:28N 35°18' E 028°51'1218.2
2017-Jul-15 07:50N 35°12' E 029°04'1118.0
2017-Jul-15 07:13N 35°07' E 029°16'417.9
2017-Jul-15 07:00N 35°05' E 029°20'4518.1
2017-Jul-15 04:31N 34°44' E 030°09'118.8
2017-Jul-15 04:28N 34°44' E 030°10'818.6
2017-Jul-15 04:00N 34°40' E 030°19'918.4
2017-Jul-15 03:30N 34°36' E 030°29'918.5
2017-Jul-15 03:00N 34°31' E 030°39'918.5
2017-Jul-15 02:31N 34°27' E 030°49'918.7
2017-Jul-15 02:01N 34°23' E 030°59'918.7
2017-Jul-15 01:31N 34°18' E 031°09'918.5
2017-Jul-15 01:00N 34°14' E 031°19'918.5
2017-Jul-15 00:31N 34°10' E 031°29'918.6
2017-Jul-15 00:01N 34°05' E 031°38'918.6
2017-Jul-14 23:31N 34°01' E 031°48'918.6
2017-Jul-14 23:00N 33°57' E 031°58'918.5
2017-Jul-14 22:30N 33°52' E 032°08'918.5
2017-Jul-14 22:00N 33°48' E 032°18'918.6
2017-Jul-14 21:30N 33°44' E 032°28'918.7
2017-Jul-14 21:00N 33°39' E 032°38'918.6
2017-Jul-14 20:31N 33°35' E 032°48'918.4
2017-Jul-14 20:00N 33°31' E 032°58'1418.2
2017-Jul-14 19:15N 33°25' E 033°12'517.8
2017-Jul-14 18:58N 33°22' E 033°18'817.8
2017-Jul-14 18:31N 33°18' E 033°26'918.0
2017-Jul-14 18:01N 33°14' E 033°36'918.3
2017-Jul-14 17:31N 33°10' E 033°45'918.5
2017-Jul-14 17:01N 33°06' E 033°55'918.7
2017-Jul-14 16:30N 33°03' E 034°06'919.0
2017-Jul-14 16:01N 33°00' E 034°17'918.8
2017-Jul-14 15:31N 32°58' E 034°28'918.8
2017-Jul-14 15:01N 32°56' E 034°39'918.6
2017-Jul-14 14:31N 32°54' E 034°50'917.8
2017-Jul-14 14:01N 32°51' E 034°60'3 5.5
2017-Jul-14 13:31N 32°49' E 035°01'0 0.0
2017-Jul-14 13:01N 32°49' E 035°01'0 0.0
2017-Jul-14 12:31N 32°49' E 035°01'0 0.0
2017-Jul-14 12:01N 32°49' E 035°01'0 0.0
2017-Jul-14 11:31N 32°49' E 035°01'0 0.0
2017-Jul-14 11:00N 32°49' E 035°01'0 0.0
2017-Jul-14 10:30N 32°49' E 035°01'0 0.0
2017-Jul-14 10:01N 32°49' E 035°01'0 0.0
2017-Jul-14 09:31N 32°49' E 035°01'0 0.0
2017-Jul-14 09:00N 32°49' E 035°01'0 0.0
2017-Jul-14 08:30N 32°49' E 035°01'0 0.0
2017-Jul-14 08:01N 32°49' E 035°01'0 0.0
2017-Jul-14 07:31N 32°49' E 035°01'0 0.0
2017-Jul-14 07:01N 32°49' E 035°01'0 0.0
2017-Jul-14 06:31N 32°49' E 035°01'0 0.0
2017-Jul-14 06:00N 32°49' E 035°01'0 0.0
2017-Jul-14 05:31N 32°49' E 035°01'0 0.0
2017-Jul-14 05:01N 32°49' E 035°01'0 0.0
2017-Jul-14 04:31N 32°49' E 035°01'0 0.0
2017-Jul-14 04:00N 32°49' E 035°01'0 0.0
2017-Jul-14 03:31N 32°49' E 035°01'0 0.0
2017-Jul-14 03:01N 32°49' E 035°01'0 0.0
2017-Jul-14 02:31N 32°49' E 035°01'0 0.0
2017-Jul-14 02:01N 32°49' E 035°01'0 0.0
2017-Jul-14 01:31N 32°49' E 035°01'0 0.0
2017-Jul-14 01:01N 32°49' E 035°01'0 0.0
2017-Jul-14 00:31N 32°49' E 035°01'0 0.0
2017-Jul-14 00:01N 32°49' E 035°01'0 0.0
2017-Jul-13 23:31N 32°49' E 035°01'0 0.0
2017-Jul-13 23:01N 32°49' E 035°01'0 0.0
2017-Jul-13 22:31N 32°49' E 035°01'0 0.0
2017-Jul-13 22:01N 32°49' E 035°01'0 0.0
2017-Jul-13 21:31N 32°49' E 035°01'0 0.0
2017-Jul-13 21:01N 32°49' E 035°01'0 0.0
2017-Jul-13 20:31N 32°49' E 035°01'0 0.0
2017-Jul-13 20:01N 32°49' E 035°01'0 0.0
2017-Jul-13 19:30N 32°49' E 035°01'0 0.0
2017-Jul-13 19:00N 32°49' E 035°01'0 0.0
2017-Jul-13 18:31N 32°49' E 035°01'0 0.0
2017-Jul-13 18:01N 32°49' E 035°01'  

Dump ship's entire track history